Impacts METAR Board
IDs:

KORD - Chicago/O'Hare Intl, IL, US

Updated at: 2100 UTC 06 Dec 2019
Potential Impact None Slight Moderate High
Time 06/09Z 06/10Z 06/11Z 06/12Z 06/13Z 06/14Z 06/15Z 06/16Z 06/17Z 06/18Z 06/19Z 06/20Z 06/21Z
Temp41 39 38 34 32 32 33 35 35 37 38 39 38
Dewpt35 34 33 27 25 25 24 24 24 23 23 22 23
Altim29.97 30.00 30.05 30.10 30.15 30.19 30.24 30.25 30.27 30.26 30.27 30.27 30.29
VIS10 10 10 10 10 10 10 10 10 10 10 10 10
CIG250 250 18 -- 21 23 26 25 25 -- -- -- --
CoverBKNBKNOVCSCTBKNBKNBKNBKNBKNSCTSCTFEWSCT
FltCatVFRVFRMVFRVFRMVFRMVFRMVFRMVFRMVFRVFRVFRVFRVFR
WX--------------------------
WDir3203403403601036010101010201020
WSpd10 11 15 18 20 14 13 16 12 8 7 9 8
WGst-- -- 24 26 29 -- -- -- -- -- -- -- --
Raw hourly METARs
KORD 060851Z 32010KT 10SM BKN250 05/02 A2997 RMK AO2 SLP153 T00500017 53018
KORD 060951Z 34011KT 10SM FEW018 BKN250 04/01 A3000 RMK AO2 SLP163 T00390011
KORD 061051Z 34015G24KT 10SM OVC018 03/01 A3005 RMK AO2 SLP179 T00330006
KORD 061151Z 36018G26KT 10SM SCT024 01/M03 A3010 RMK AO2 PK WND 35027/1058 SLP199 T00111028 10056 20011 53043
KORD 061251Z 01020G29KT 10SM BKN021 00/M04 A3015 RMK AO2 PK WND 35029/1243 SLP215 T00001039
KORD 061351Z 36014KT 10SM BKN023 00/M04 A3019 RMK AO2 PK WND 35030/1312 SLP230 T00001039
KORD 061501Z 01013KT 10SM BKN026 01/M04 A3024 RMK AO2 T00061044
KORD 061551Z 01016KT 10SM BKN025 02/M04 A3025 RMK AO2 SLP251 T00171044
KORD 061651Z 01012KT 10SM BKN025 02/M04 A3027 RMK AO2 SLP255 T00171044
KORD 061751Z 01008KT 10SM SCT029 SCT250 03/M05 A3026 RMK AO2 SLP253 T00281050 10028 21006 50010
KORD 061851Z 02007KT 10SM FEW031 SCT250 03/M05 A3027 RMK AO2 SLP256 T00331050
KORD 061951Z 01009KT 10SM FEW035 FEW250 04/M06 A3027 RMK AO2 SLP256 T00391056
KORD 062051Z 02008KT 10SM FEW035 SCT250 03/M05 A3029 RMK AO2 SLP263 T00331050 53010



Page loaded:  21:13 UTC  |   01:13 PM Pacific  |   02:13 PM Mountain  |   03:13 PM Central  |   04:13 PM Eastern

 

ADVISORIES

FORECASTS

FORECASTS

OBSERVATIONS

USER TOOLS

ABOUT US